カーブル の空港の天気 - METARとTAF

カーブル国際空港 ( OAKB / KBL ) - アフガニスタン カーブル
飛行場実況気象(Metar)
観測時間05/25 14:20 +0430 (05/25 09:50 UTC)
風向・風速北 4m/s
視程10km以上
天気現象
全天の4割程度の雲 雲底高度 3350m
気温32℃
湿度11%
気圧1015hPa
METAROAKB 250950Z 36008KT 310V070 9999 SCT110 32/M02 Q1015 NOSIG RMK BLU BLU
過去の天気等 Google飛行場航空写真 Wunderground天気予報

過去48時間のMETAR

飛行場予報(TAF)
発表時間: 5/25 03:35 +0430 (5/24 23:05 UTC)
予報対象時間: 25日4時 +0430 ~ 26日4時 +0430
風向・風速不定 1m/s
視程10km以上
なし
25日6時 +0430 ~ 25日9時 +0430 に 確率 30% で一時的に
視程5,000m
天気現象煙霧
25日11時 +0430 ~ 25日14時 +0430 に徐々に
風向・風速北北西 8m/s 瞬間風速 18m/s
少しの雲 雲底高度 3,050m
25日18時 +0430 ~ 25日20時 +0430 に徐々に
風向・風速北 6m/s
視程10km以上
なし
25日22時 +0430 ~ 26日24時 +0430 に徐々に
風向・風速不定 1m/s
TAF OAKB 242305Z 2500/2524 VRB02KT CAVOK
PROB30 TEMPO 2502/2505 5000 HZ
BECMG 2507/2510 33015G35KT FEW100
BECMG 2514/2516 35012KT CAVOK
BECMG 2518/2520 VRB02KT